Lawson Army Air Field (Fort Benning)
KLSF : rendu visible

Aérodrome :











RETROUVEZ-NOUS SUR...

 
LOGIN :

S'inscrire | Disclaimer

   EN    FR    IT 

 









Légende :    VFR   VFR Marginal   IFR   IFR Intensif   IFR Très Intensif
Visi : 
Plafond : 
>= 8 km
>= 3000ft
5 à 8 km
1000 à 3000 ft
1500m à 5 km
500 à 1000 ft
800 à 1500m
200 à 500 ft
< 800m
< 200 ft
Symboles :   Orages  Brouillard  Fortes neiges  Fortes précipitations  Vent > 20 kt






- Altitude de l'aérodrome : 232 ft


KLSF - Lawson Army Air Field (Fort Benning)

DERNIER METAR :
  • 121921Z AUTO 31015G24KT 10SM SCT024 07/01 A3011 RMK AO2 SLP202 $

METARs EXPIRÉS :
  • 121856Z AUTO 31017KT 10SM OVC021 06/03 A3012 RMK AO2 SLP205 T00570025 $
  • 121836Z AUTO 30014G22KT 10SM OVC020 06/03 A3013 RMK AO2 SLP208 $
  • 121756Z AUTO 29016KT 10SM OVC019 06/04 A3012 RMK AO2 RAE01 SLP205 P0000 60003 T00560042 10137 20052 50010 $
  • 121731Z AUTO 31016G22KT 10SM OVC015 06/05 A3012 RMK AO2 RAE01 SLP205 $
  • 121701Z AUTO 30013KT 10SM OVC014 06/06 A3012 RMK AO2 RAE01 SLP205 $
  • 121656Z AUTO 31012G20KT 10SM -RA OVC014 06/06 A3012 RMK AO2 RAB28E45DZB45E46RAB48 SLP205 P0000 T00590058 $
  • 121646Z AUTO 32013G21KT 10SM OVC014 06/06 A3012 RMK AO2 RAB28E45DZB45E46 SLP205 $
  • 121628Z AUTO 29016G22KT 10SM -RA BKN013 OVC018 06/06 A3012 RMK AO2 RAB28 SLP205 $

TAF TAF KLSF
Valide du 12 à 17h jusqu'au 13 à 23h UTC


121700Z 1217/1323 31015G20KT 9999 BKN015 QNH3010INS
TEMPO 1217/1220 BKN012
BECMG 1223/1224 33009KT 9999 FEW050 QNH3020INS
BECMG 1314/1315 07012KT 9999 SKC QNH3022INS TX10/1312Z TNM02/1311Z



MET'MAP, la Météo Aéronautique d'un coup d'oeil ! - Copyright ORBIFLY Décembre 2007 - Disclaimer

ORBIFLY MET'MAP TEAM :

Programmation & Développement : Alexandra Zaïnal
Conception & Développement : Baudouin d'Aumeries
Co-Programmation & Développement : Marc-Olivier Méhu
Soutien technique & logistique : Manuel Goepfert

Contact : metmap@orbifly.com




SOURCES & CREDITS :

   NOAA       Earth
Advisory